sensor_id;sensor_type;location;lat;lon;timestamp;pressure;altitude;pressure_sealevel;temperature;humidity
21520;BME280;10921;53.614;9.882;2023-03-13T14:40:46;98765.97;;;19.46;51.21
21520;BME280;10921;53.614;9.882;2023-03-13T14:43:27;98770.31;;;19.47;51.18
21520;BME280;10921;53.614;9.882;2023-03-13T14:45:55;98754.44;;;19.33;51.40
21520;BME280;10921;53.614;9.882;2023-03-13T14:48:32;98767.59;;;19.47;51.19
21520;BME280;10921;53.614;9.882;2023-03-13T14:51:20;98763.75;;;19.43;51.57
21520;BME280;10921;53.614;9.882;2023-03-13T14:53:56;98774.06;;;19.46;51.13
21520;BME280;10921;53.614;9.882;2023-03-13T14:59:18;98743.13;;;19.53;50.32
21520;BME280;10921;53.614;9.882;2023-03-13T15:02:01;98759.09;;;19.55;50.81
21520;BME280;10921;53.614;9.882;2023-03-13T15:07:16;98726.91;;;19.37;50.62
21520;BME280;10921;53.614;9.882;2023-03-13T15:09:44;98668.19;;;18.93;50.60
21520;BME280;10921;53.614;9.882;2023-03-13T15:12:17;98739.78;;;19.29;50.75
21520;BME280;10921;53.614;9.882;2023-03-13T15:14:46;98736.75;;;19.26;51.17
21520;BME280;10921;53.614;9.882;2023-03-13T15:17:24;98743.50;;;19.23;50.94
21520;BME280;10921;53.614;9.882;2023-03-13T15:19:53;98728.00;;;19.19;50.97
21520;BME280;10921;53.614;9.882;2023-03-13T15:22:31;98718.84;;;19.20;50.78
21520;BME280;10921;53.614;9.882;2023-03-13T15:24:58;98717.00;;;19.25;50.65
21520;BME280;10921;53.614;9.882;2023-03-13T15:27:33;98730.09;;;19.33;50.47
21520;BME280;10921;53.614;9.882;2023-03-13T15:30:00;98713.47;;;19.25;50.45
21520;BME280;10921;53.614;9.882;2023-03-13T15:32:29;98703.03;;;19.12;50.37
21520;BME280;10921;53.614;9.882;2023-03-13T15:34:57;98716.47;;;19.23;49.88
21520;BME280;10921;53.614;9.882;2023-03-13T15:37:25;98670.22;;;18.86;50.49
21520;BME280;10921;53.614;9.882;2023-03-13T15:39:52;98705.22;;;19.15;50.19
21520;BME280;10921;53.614;9.882;2023-03-13T15:42:19;98708.78;;;18.98;50.80
21520;BME280;10921;53.614;9.882;2023-03-13T15:44:45;98706.31;;;18.97;51.13
21520;BME280;10921;53.614;9.882;2023-03-13T15:47:18;98704.63;;;18.91;51.71
21520;BME280;10921;53.614;9.882;2023-03-13T15:49:45;98699.84;;;18.98;51.60
21520;BME280;10921;53.614;9.882;2023-03-13T15:52:14;98684.94;;;18.95;52.25
21520;BME280;10921;53.614;9.882;2023-03-13T15:54:45;98679.53;;;18.95;52.44
21520;BME280;10921;53.614;9.882;2023-03-13T15:57:13;98675.63;;;18.86;52.40
21520;BME280;10921;53.614;9.882;2023-03-13T15:59:41;98683.25;;;18.89;52.28
21520;BME280;10921;53.614;9.882;2023-03-13T16:02:14;98628.91;;;18.69;52.39
21520;BME280;10921;53.614;9.882;2023-03-13T16:04:41;98644.97;;;18.97;52.11
21520;BME280;10921;53.614;9.882;2023-03-13T16:07:10;98677.75;;;19.01;52.30
21520;BME280;10921;53.614;9.882;2023-03-13T16:09:37;98685.34;;;19.04;52.03
21520;BME280;10921;53.614;9.882;2023-03-13T16:12:05;98688.63;;;19.06;52.36
21520;BME280;10921;53.614;9.882;2023-03-13T16:14:32;98681.84;;;19.04;51.46
21520;BME280;10921;53.614;9.882;2023-03-13T16:16:59;98675.03;;;19.01;51.27
21520;BME280;10921;53.614;9.882;2023-03-13T16:19:27;98680.44;;;19.01;51.57
21520;BME280;10921;53.614;9.882;2023-03-13T16:21:54;98666.59;;;18.97;51.17
21520;BME280;10921;53.614;9.882;2023-03-13T16:24:20;98673.16;;;19.02;51.04
21520;BME280;10921;53.614;9.882;2023-03-13T16:26:47;98651.88;;;18.88;50.59
21520;BME280;10921;53.614;9.882;2023-03-13T16:29:15;98654.94;;;18.75;50.61
21520;BME280;10921;53.614;9.882;2023-03-13T16:31:41;98613.69;;;18.46;51.07
21520;BME280;10921;53.614;9.882;2023-03-13T16:34:08;98656.06;;;18.79;50.15
21520;BME280;10921;53.614;9.882;2023-03-13T16:36:35;98643.16;;;18.65;49.34
21520;BME280;10921;53.614;9.882;2023-03-13T16:39:13;98655.28;;;18.62;50.01
21520;BME280;10921;53.614;9.882;2023-03-13T16:41:40;98653.06;;;18.59;49.84
21520;BME280;10921;53.614;9.882;2023-03-13T16:44:06;98659.16;;;18.54;49.83
21520;BME280;10921;53.614;9.882;2023-03-13T16:46:40;98663.94;;;18.47;50.45
21520;BME280;10921;53.614;9.882;2023-03-13T16:49:29;98670.31;;;18.41;50.28
21520;BME280;10921;53.614;9.882;2023-03-13T16:51:55;98673.72;;;18.37;50.31
21520;BME280;10921;53.614;9.882;2023-03-13T16:54:22;98675.59;;;18.36;50.93
21520;BME280;10921;53.614;9.882;2023-03-13T16:56:48;98664.63;;;18.26;50.91
21520;BME280;10921;53.614;9.882;2023-03-13T16:59:17;98676.50;;;18.25;50.77
21520;BME280;10921;53.614;9.882;2023-03-13T17:01:44;98666.19;;;18.22;51.06
21520;BME280;10921;53.614;9.882;2023-03-13T17:04:12;98655.31;;;18.17;51.13
21520;BME280;10921;53.614;9.882;2023-03-13T17:06:40;98651.38;;;18.08;51.14
21520;BME280;10921;53.614;9.882;2023-03-13T17:09:13;98671.66;;;18.10;51.49
21520;BME280;10921;53.614;9.882;2023-03-13T17:11:41;98646.03;;;17.96;51.03
21520;BME280;10921;53.614;9.882;2023-03-13T17:14:07;98660.69;;;18.00;51.06
21520;BME280;10921;53.614;9.882;2023-03-13T17:16:43;98647.19;;;18.00;51.33
21520;BME280;10921;53.614;9.882;2023-03-13T17:19:13;98662.81;;;17.98;51.74
21520;BME280;10921;53.614;9.882;2023-03-13T17:21:40;98567.66;;;17.46;51.53
21520;BME280;10921;53.614;9.882;2023-03-13T17:24:07;98607.13;;;17.64;52.09
21520;BME280;10921;53.614;9.882;2023-03-13T17:26:35;98657.19;;;17.88;52.03
21520;BME280;10921;53.614;9.882;2023-03-13T17:29:04;98663.56;;;17.82;52.31
21520;BME280;10921;53.614;9.882;2023-03-13T17:31:31;98641.16;;;17.53;52.32
21520;BME280;10921;53.614;9.882;2023-03-13T17:34:06;98657.88;;;17.67;52.55
21520;BME280;10921;53.614;9.882;2023-03-13T17:36:34;98668.69;;;17.67;52.84
21520;BME280;10921;53.614;9.882;2023-03-13T17:39:04;98657.75;;;17.62;53.24
21520;BME280;10921;53.614;9.882;2023-03-13T17:41:32;98671.38;;;17.55;53.46
21520;BME280;10921;53.614;9.882;2023-03-13T17:43:59;98654.75;;;17.46;53.67
21520;BME280;10921;53.614;9.882;2023-03-13T17:46:39;98657.09;;;17.43;53.91
21520;BME280;10921;53.614;9.882;2023-03-13T17:49:06;98681.94;;;17.45;54.05
21520;BME280;10921;53.614;9.882;2023-03-13T17:51:34;98684.88;;;17.43;54.56
21520;BME280;10921;53.614;9.882;2023-03-13T17:54:01;98674.00;;;17.38;54.74
21520;BME280;10921;53.614;9.882;2023-03-13T17:56:29;98694.00;;;17.42;54.93
21520;BME280;10921;53.614;9.882;2023-03-13T17:58:58;98696.97;;;17.41;55.22
21520;BME280;10921;53.614;9.882;2023-03-13T18:01:28;98688.91;;;17.41;55.38
21520;BME280;10921;53.614;9.882;2023-03-13T18:03:54;98694.25;;;17.52;55.20
21520;BME280;10921;53.614;9.882;2023-03-13T18:06:22;98696.84;;;17.36;54.52
21520;BME280;10921;53.614;9.882;2023-03-13T18:08:51;98687.59;;;17.32;54.23
21520;BME280;10921;53.614;9.882;2023-03-13T18:11:18;98699.09;;;17.27;54.14
21520;BME280;10921;53.614;9.882;2023-03-13T18:13:46;98664.78;;;16.99;52.72
21520;BME280;10921;53.614;9.882;2023-03-13T18:16:26;98688.91;;;17.17;52.67
21520;BME280;10921;53.614;9.882;2023-03-13T18:18:55;98686.34;;;17.11;51.89
21520;BME280;10921;53.614;9.882;2023-03-13T18:21:22;98686.00;;;17.07;51.80
21520;BME280;10921;53.614;9.882;2023-03-13T18:23:49;98682.81;;;16.99;51.64
21520;BME280;10921;53.614;9.882;2023-03-13T18:26:21;98694.19;;;17.01;52.07
21520;BME280;10921;53.614;9.882;2023-03-13T18:28:47;98692.91;;;16.92;52.50
21520;BME280;10921;53.614;9.882;2023-03-13T18:31:14;98691.97;;;16.86;52.81
21520;BME280;10921;53.614;9.882;2023-03-13T18:33:41;98696.91;;;16.77;53.11
21520;BME280;10921;53.614;9.882;2023-03-13T18:36:17;98687.19;;;16.65;53.24
21520;BME280;10921;53.614;9.882;2023-03-13T18:38:47;98690.91;;;16.64;53.36
21520;BME280;10921;53.614;9.882;2023-03-13T18:41:15;98698.94;;;16.52;53.24
21520;BME280;10921;53.614;9.882;2023-03-13T18:43:42;98696.00;;;16.42;52.91
21520;BME280;10921;53.614;9.882;2023-03-13T18:48:39;98666.06;;;16.08;52.34
21520;BME280;10921;53.614;9.882;2023-03-13T18:51:08;98681.53;;;16.13;51.84
21520;BME280;10921;53.614;9.882;2023-03-13T18:53:37;98701.78;;;16.15;51.38
21520;BME280;10921;53.614;9.882;2023-03-13T18:56:17;98709.63;;;16.17;51.80
21520;BME280;10921;53.614;9.882;2023-03-13T18:58:46;98661.53;;;15.79;51.24
21520;BME280;10921;53.614;9.882;2023-03-13T19:01:18;98721.28;;;16.11;51.55
21520;BME280;10921;53.614;9.882;2023-03-13T19:03:45;98731.09;;;16.05;51.14
21520;BME280;10921;53.614;9.882;2023-03-13T19:08:57;98743.22;;;15.96;51.48
21520;BME280;10921;53.614;9.882;2023-03-13T19:11:26;98737.47;;;15.93;51.53
21520;BME280;10921;53.614;9.882;2023-03-13T19:13:54;98705.69;;;15.71;51.46
21520;BME280;10921;53.614;9.882;2023-03-13T19:16:33;98742.94;;;15.86;51.94
21520;BME280;10921;53.614;9.882;2023-03-13T19:19:16;98739.28;;;15.80;52.14
21520;BME280;10921;53.614;9.882;2023-03-13T19:21:43;98756.78;;;15.71;52.00
21520;BME280;10921;53.614;9.882;2023-03-13T19:24:10;98752.91;;;15.67;52.05
21520;BME280;10921;53.614;9.882;2023-03-13T19:26:38;98754.16;;;15.65;52.32
21520;BME280;10921;53.614;9.882;2023-03-13T19:29:15;98744.91;;;15.61;52.49
21520;BME280;10921;53.614;9.882;2023-03-13T19:31:42;98747.66;;;15.54;52.73
21520;BME280;10921;53.614;9.882;2023-03-13T19:34:09;98737.56;;;15.49;52.85
21520;BME280;10921;53.614;9.882;2023-03-13T19:36:38;98729.19;;;15.39;53.15
21520;BME280;10921;53.614;9.882;2023-03-13T19:39:16;98732.78;;;15.33;53.61
21520;BME280;10921;53.614;9.882;2023-03-13T19:41:43;98722.38;;;15.19;53.73
21520;BME280;10921;53.614;9.882;2023-03-13T19:44:10;98727.16;;;15.17;54.10
21520;BME280;10921;53.614;9.882;2023-03-13T19:46:37;98700.13;;;14.93;54.27
21520;BME280;10921;53.614;9.882;2023-03-13T19:49:10;98746.88;;;15.10;54.80
21520;BME280;10921;53.614;9.882;2023-03-13T19:51:37;98752.06;;;15.05;54.97
21520;BME280;10921;53.614;9.882;2023-03-13T19:54:04;98723.31;;;14.88;54.97
21520;BME280;10921;53.614;9.882;2023-03-13T19:56:31;98736.69;;;14.94;55.33
21520;BME280;10921;53.614;9.882;2023-03-13T19:59:03;98689.41;;;14.68;55.70
21520;BME280;10921;53.614;9.882;2023-03-13T20:01:31;98716.94;;;14.82;55.81
21520;BME280;10921;53.614;9.882;2023-03-13T20:03:58;98652.69;;;14.44;55.92
21520;BME280;10921;53.614;9.882;2023-03-13T20:06:27;98709.47;;;14.66;56.29
21520;BME280;10921;53.614;9.882;2023-03-13T20:08:55;98695.22;;;14.65;56.42
21520;BME280;10921;53.614;9.882;2023-03-13T20:11:23;98695.50;;;14.57;56.60
21520;BME280;10921;53.614;9.882;2023-03-13T20:13:51;98694.66;;;14.57;56.67
21520;BME280;10921;53.614;9.882;2023-03-13T20:16:18;98655.16;;;14.39;56.96
21520;BME280;10921;53.614;9.882;2023-03-13T20:18:48;98670.00;;;14.48;57.03
21520;BME280;10921;53.614;9.882;2023-03-13T20:21:16;98662.81;;;14.42;57.14
21520;BME280;10921;53.614;9.882;2023-03-13T20:23:47;98681.38;;;14.43;57.58
21520;BME280;10921;53.614;9.882;2023-03-13T20:26:15;98689.03;;;14.40;57.30
21520;BME280;10921;53.614;9.882;2023-03-13T20:28:47;98692.34;;;14.35;57.54
21520;BME280;10921;53.614;9.882;2023-03-13T20:31:15;98702.91;;;14.30;57.45
21520;BME280;10921;53.614;9.882;2023-03-13T20:33:42;98710.97;;;14.24;57.33
21520;BME280;10921;53.614;9.882;2023-03-13T20:36:11;98703.16;;;14.22;57.60
21520;BME280;10921;53.614;9.882;2023-03-13T20:38:38;98695.56;;;14.19;57.52
21520;BME280;10921;53.614;9.882;2023-03-13T20:41:06;98680.09;;;14.15;57.53
21520;BME280;10921;53.614;9.882;2023-03-13T20:43:34;98687.16;;;14.09;57.66
21520;BME280;10921;53.614;9.882;2023-03-13T20:46:01;98693.50;;;14.15;57.71
21520;BME280;10921;53.614;9.882;2023-03-13T20:48:28;98681.03;;;14.02;57.61
21520;BME280;10921;53.614;9.882;2023-03-13T20:50:56;98701.81;;;14.06;58.09
21520;BME280;10921;53.614;9.882;2023-03-13T20:53:26;98704.13;;;14.03;57.89
21520;BME280;10921;53.614;9.882;2023-03-13T20:55:52;98687.41;;;14.01;58.17
21520;BME280;10921;53.614;9.882;2023-03-13T20:58:21;98690.53;;;13.98;58.32
21520;BME280;10921;53.614;9.882;2023-03-13T21:00:49;98657.63;;;13.78;58.54
21520;BME280;10921;53.614;9.882;2023-03-13T21:03:15;98675.97;;;13.87;58.50
21520;BME280;10921;53.614;9.882;2023-03-13T21:05:45;98668.34;;;13.84;58.50
21520;BME280;10921;53.614;9.882;2023-03-13T21:08:11;98658.25;;;13.80;58.74
21520;BME280;10921;53.614;9.882;2023-03-13T21:10:39;98664.22;;;13.82;58.69
21520;BME280;10921;53.614;9.882;2023-03-13T21:13:07;98659.72;;;13.76;58.97
21520;BME280;10921;53.614;9.882;2023-03-13T21:15:34;98601.00;;;13.36;59.14
21520;BME280;10921;53.614;9.882;2023-03-13T21:18:01;98659.56;;;13.70;59.19
21520;BME280;10921;53.614;9.882;2023-03-13T21:20:28;98654.00;;;13.65;59.34
21520;BME280;10921;53.614;9.882;2023-03-13T21:22:55;98651.38;;;13.59;59.45
21520;BME280;10921;53.614;9.882;2023-03-13T21:25:22;98657.38;;;13.54;59.86
21520;BME280;10921;53.614;9.882;2023-03-13T21:27:49;98655.72;;;13.53;59.94
21520;BME280;10921;53.614;9.882;2023-03-13T21:30:18;98660.69;;;13.50;60.19
21520;BME280;10921;53.614;9.882;2023-03-13T21:32:45;98608.09;;;13.04;60.25
21520;BME280;10921;53.614;9.882;2023-03-13T21:35:13;98676.34;;;13.46;60.61
21520;BME280;10921;53.614;9.882;2023-03-13T21:37:40;98695.09;;;13.46;60.50
21520;BME280;10921;53.614;9.882;2023-03-13T21:40:07;98698.44;;;13.42;60.78
21520;BME280;10921;53.614;9.882;2023-03-13T21:42:34;98634.25;;;13.02;60.72
21520;BME280;10921;53.614;9.882;2023-03-13T21:45:03;98652.38;;;13.07;61.07
21520;BME280;10921;53.614;9.882;2023-03-13T21:47:30;98709.56;;;13.38;61.11
21520;BME280;10921;53.614;9.882;2023-03-13T21:50:04;98705.66;;;13.34;61.08
21520;BME280;10921;53.614;9.882;2023-03-13T21:52:31;98708.75;;;13.38;61.24
21520;BME280;10921;53.614;9.882;2023-03-13T21:55:01;98701.53;;;13.32;61.32
21520;BME280;10921;53.614;9.882;2023-03-13T21:57:28;98705.66;;;13.34;61.41
21520;BME280;10921;53.614;9.882;2023-03-13T21:59:55;98701.13;;;13.35;61.68
21520;BME280;10921;53.614;9.882;2023-03-13T22:02:21;98694.75;;;13.29;62.14
21520;BME280;10921;53.614;9.882;2023-03-13T22:04:48;98672.34;;;13.17;62.75
21520;BME280;10921;53.614;9.882;2023-03-13T22:07:14;98692.06;;;13.29;63.37
21520;BME280;10921;53.614;9.882;2023-03-13T22:09:41;98696.38;;;13.30;63.50
21520;BME280;10921;53.614;9.882;2023-03-13T22:12:07;98692.50;;;13.26;64.57
21520;BME280;10921;53.614;9.882;2023-03-13T22:14:34;98685.09;;;13.28;64.82
21520;BME280;10921;53.614;9.882;2023-03-13T22:17:00;98661.63;;;13.17;65.51
21520;BME280;10921;53.614;9.882;2023-03-13T22:19:27;98666.56;;;13.27;66.07
21520;BME280;10921;53.614;9.882;2023-03-13T22:21:53;98666.75;;;13.25;66.11
21520;BME280;10921;53.614;9.882;2023-03-13T22:24:20;98680.56;;;13.22;67.28
21520;BME280;10921;53.614;9.882;2023-03-13T22:26:46;98668.63;;;13.25;67.20
21520;BME280;10921;53.614;9.882;2023-03-13T22:29:13;98624.59;;;12.94;68.28
21520;BME280;10921;53.614;9.882;2023-03-13T22:31:39;98672.53;;;13.22;68.71
21520;BME280;10921;53.614;9.882;2023-03-13T22:34:06;98658.53;;;13.14;69.35
21520;BME280;10921;53.614;9.882;2023-03-13T22:36:32;98664.28;;;13.24;69.35
21520;BME280;10921;53.614;9.882;2023-03-13T22:38:59;98654.41;;;13.24;69.58
21520;BME280;10921;53.614;9.882;2023-03-13T22:41:25;98638.97;;;13.20;69.85
21520;BME280;10921;53.614;9.882;2023-03-13T22:43:52;98653.16;;;13.27;69.96
21520;BME280;10921;53.614;9.882;2023-03-13T22:46:18;98642.44;;;13.27;70.09
21520;BME280;10921;53.614;9.882;2023-03-13T22:48:45;98649.88;;;13.25;70.52
21520;BME280;10921;53.614;9.882;2023-03-13T22:51:13;98631.91;;;13.32;70.31
21520;BME280;10921;53.614;9.882;2023-03-13T22:53:40;98637.88;;;13.34;70.20
21520;BME280;10921;53.614;9.882;2023-03-13T22:56:09;98635.41;;;13.32;70.66
21520;BME280;10921;53.614;9.882;2023-03-13T22:58:36;98646.72;;;13.34;70.67
21520;BME280;10921;53.614;9.882;2023-03-13T23:01:21;98618.97;;;13.29;70.92
21520;BME280;10921;53.614;9.882;2023-03-13T23:03:48;98624.06;;;13.37;70.76
21520;BME280;10921;53.614;9.882;2023-03-13T23:06:23;98622.63;;;13.34;70.94
21520;BME280;10921;53.614;9.882;2023-03-13T23:08:50;98614.16;;;13.37;70.54
21520;BME280;10921;53.614;9.882;2023-03-13T23:11:17;98614.16;;;13.37;70.81
21520;BME280;10921;53.614;9.882;2023-03-13T23:13:44;98591.53;;;13.33;70.99
21520;BME280;10921;53.614;9.882;2023-03-13T23:16:11;98529.91;;;12.95;71.21
21520;BME280;10921;53.614;9.882;2023-03-13T23:18:38;98600.16;;;13.42;71.10
21520;BME280;10921;53.614;9.882;2023-03-13T23:21:08;98610.03;;;13.42;71.06
21520;BME280;10921;53.614;9.882;2023-03-13T23:23:35;98605.94;;;13.39;71.55
21520;BME280;10921;53.614;9.882;2023-03-13T23:26:04;98583.34;;;13.22;71.81
21520;BME280;10921;53.614;9.882;2023-03-13T23:28:33;98603.06;;;13.34;72.30
21520;BME280;10921;53.614;9.882;2023-03-13T23:31:07;98617.47;;;13.33;72.68
21520;BME280;10921;53.614;9.882;2023-03-13T23:33:34;98588.09;;;13.20;72.60
21520;BME280;10921;53.614;9.882;2023-03-13T23:36:07;98605.72;;;13.34;73.18
21520;BME280;10921;53.614;9.882;2023-03-13T23:38:34;98605.13;;;13.32;72.61
21520;BME280;10921;53.614;9.882;2023-03-13T23:41:08;98601.00;;;13.29;73.22
21520;BME280;10921;53.614;9.882;2023-03-13T23:43:35;98608.06;;;13.17;73.14
21520;BME280;10921;53.614;9.882;2023-03-13T23:46:03;98611.75;;;13.23;73.62
21520;BME280;10921;53.614;9.882;2023-03-13T23:48:30;98608.25;;;13.22;73.45
21520;BME280;10921;53.614;9.882;2023-03-13T23:50:56;98591.41;;;13.15;73.58
21520;BME280;10921;53.614;9.882;2023-03-13T23:53:23;98588.31;;;13.12;74.13
21520;BME280;10921;53.614;9.882;2023-03-13T23:55:56;98567.31;;;13.02;74.68
21520;BME280;10921;53.614;9.882;2023-03-13T23:58:23;98567.72;;;13.06;73.89
